createdAt,value
2017-12-01T00:02:14.654Z,0.26
2017-12-01T00:04:42.327Z,0.26
2017-12-01T00:07:09.897Z,0.31
2017-12-01T00:09:37.461Z,0.27
2017-12-01T00:12:05.037Z,0.24
2017-12-01T00:14:32.604Z,0.29
2017-12-01T00:17:00.169Z,0.25
2017-12-01T00:19:28.745Z,0.37
2017-12-01T00:21:56.301Z,0.20
2017-12-01T00:24:23.868Z,0.17
2017-12-01T00:26:52.272Z,0.20
2017-12-01T00:29:20.661Z,0.20
2017-12-01T00:31:49.144Z,0.20
2017-12-01T00:34:17.488Z,0.18
2017-12-01T00:36:45.184Z,0.35
2017-12-01T00:39:12.744Z,0.47
2017-12-01T00:41:40.559Z,0.34
2017-12-01T00:44:09.255Z,0.23
2017-12-01T00:46:37.573Z,0.17
2017-12-01T00:49:05.136Z,0.36
2017-12-01T00:51:32.769Z,0.28
2017-12-01T00:54:01.152Z,0.28
2017-12-01T00:56:28.727Z,0.29
2017-12-01T00:58:57.104Z,0.28
2017-12-01T01:01:25.462Z,0.37
2017-12-01T01:03:53.747Z,0.36
2017-12-01T01:06:21.308Z,0.43
2017-12-01T01:08:49.620Z,0.46
2017-12-01T01:11:17.277Z,0.69
2017-12-01T01:13:44.908Z,0.80
2017-12-01T01:16:12.503Z,0.91
2017-12-01T01:18:40.099Z,0.81
2017-12-01T01:21:07.661Z,0.78
2017-12-01T01:23:35.280Z,0.87
2017-12-01T01:26:03.567Z,0.93
2017-12-01T01:28:31.944Z,1.01
2017-12-01T01:30:59.505Z,0.86
2017-12-01T01:33:27.173Z,0.84
2017-12-01T01:35:55.529Z,0.86
2017-12-01T01:38:23.127Z,0.85
2017-12-01T01:40:50.693Z,0.92
2017-12-01T01:43:18.323Z,0.82
2017-12-01T01:45:45.987Z,1.00
2017-12-01T01:48:13.543Z,1.04
2017-12-01T01:50:41.881Z,0.97
2017-12-01T01:53:10.352Z,1.10
2017-12-01T01:55:38.787Z,1.04
2017-12-01T01:58:07.271Z,1.15
2017-12-01T02:00:34.938Z,1.13
2017-12-01T02:03:02.503Z,1.19
2017-12-01T02:05:30.061Z,1.19
2017-12-01T02:07:58.572Z,1.18
2017-12-01T02:10:26.200Z,1.22
2017-12-01T02:12:54.660Z,1.17
2017-12-01T02:15:22.233Z,0.91
2017-12-01T02:17:49.801Z,0.92
2017-12-01T02:20:17.364Z,1.11
2017-12-01T02:22:45.038Z,0.97
2017-12-01T02:25:12.606Z,1.15
2017-12-01T02:27:40.260Z,0.95
2017-12-01T02:30:07.921Z,0.73
2017-12-01T02:32:35.493Z,0.66
2017-12-01T02:35:03.064Z,0.77
2017-12-01T02:37:30.670Z,0.89
2017-12-01T02:39:58.265Z,1.05
2017-12-01T02:42:25.819Z,0.76
2017-12-01T02:44:53.484Z,0.96
2017-12-01T02:47:21.045Z,0.75
2017-12-01T02:49:48.607Z,0.81
2017-12-01T02:52:16.268Z,0.72
2017-12-01T02:54:48.498Z,0.85
2017-12-01T02:57:16.060Z,0.64
2017-12-01T02:59:44.336Z,0.73
2017-12-01T03:02:11.905Z,0.56
2017-12-01T03:04:40.397Z,0.53
2017-12-01T03:07:07.977Z,0.64
2017-12-01T03:09:35.544Z,0.70
2017-12-01T03:12:03.100Z,0.73
2017-12-01T03:14:30.656Z,0.63
2017-12-01T03:16:58.265Z,0.41
2017-12-01T03:19:25.827Z,0.27
2017-12-01T03:21:53.441Z,0.13
2017-12-01T03:24:20.999Z,0.14
2017-12-01T03:26:48.618Z,0.08
2017-12-01T03:29:17.053Z,0.10
2017-12-01T03:31:44.711Z,0.12
2017-12-01T03:34:12.312Z,0.29
2017-12-01T03:36:39.884Z,0.22
2017-12-01T03:39:07.498Z,0.26
2017-12-01T03:41:35.842Z,0.16
2017-12-01T03:44:03.601Z,0.30
2017-12-01T03:46:31.214Z,0.20
2017-12-01T03:48:59.619Z,0.13
2017-12-01T03:51:28.073Z,0.15
2017-12-01T03:53:56.341Z,0.01
2017-12-01T03:56:24.820Z,0.15
2017-12-01T03:58:53.244Z,0.23
2017-12-01T04:01:21.764Z,0.20
2017-12-01T04:03:50.211Z,0.28
2017-12-01T04:06:18.749Z,0.36
2017-12-01T04:08:46.422Z,0.10
2017-12-01T04:11:14.022Z,0.11
2017-12-01T04:13:42.360Z,0.30
2017-12-01T04:16:10.730Z,0.30
2017-12-01T04:18:39.066Z,0.45
2017-12-01T04:21:07.417Z,0.46
2017-12-01T04:23:35.882Z,0.40
2017-12-01T04:26:04.237Z,0.27
2017-12-01T04:28:32.588Z,0.51
2017-12-01T04:31:00.911Z,0.59
2017-12-01T04:33:29.240Z,0.70
2017-12-01T04:35:57.635Z,0.58
2017-12-01T04:38:25.239Z,0.55
2017-12-01T04:40:52.808Z,0.61
2017-12-01T04:43:21.276Z,0.48
2017-12-01T04:45:48.920Z,0.55
2017-12-01T04:48:17.430Z,0.70
2017-12-01T04:50:45.789Z,0.71
2017-12-01T04:53:14.129Z,0.61
2017-12-01T04:55:42.114Z,0.69
2017-12-01T04:58:09.677Z,0.67
2017-12-01T05:00:37.272Z,0.79
2017-12-01T05:03:05.760Z,0.64
2017-12-01T05:05:34.055Z,0.58
2017-12-01T05:08:02.310Z,0.53
2017-12-01T05:10:29.871Z,0.59
2017-12-01T05:12:57.430Z,0.57
2017-12-01T05:15:24.992Z,0.64
2017-12-01T05:17:52.561Z,0.70
2017-12-01T05:20:20.132Z,0.59
2017-12-01T05:22:48.704Z,0.64
2017-12-01T05:25:17.175Z,0.58
2017-12-01T05:27:44.740Z,0.61
2017-12-01T05:30:12.308Z,0.70
2017-12-01T05:32:40.809Z,0.79
2017-12-01T05:35:09.144Z,0.83
2017-12-01T05:37:36.708Z,0.75
2017-12-01T05:40:05.301Z,0.81
2017-12-01T05:42:32.852Z,0.71
2017-12-01T05:45:01.316Z,0.73
2017-12-01T05:47:29.585Z,0.81
2017-12-01T05:49:57.965Z,0.88
2017-12-01T05:52:26.317Z,0.70
2017-12-01T05:54:54.659Z,0.92
2017-12-01T05:57:23.150Z,0.98
2017-12-01T05:59:50.724Z,0.84
2017-12-01T06:02:19.140Z,0.83
2017-12-01T06:04:46.712Z,0.85
2017-12-01T06:07:16.225Z,0.93
2017-12-01T06:09:44.568Z,0.86
2017-12-01T06:12:12.855Z,0.72
2017-12-01T06:14:41.128Z,0.71
2017-12-01T06:17:09.477Z,0.55
2017-12-01T06:19:37.050Z,0.51
2017-12-01T06:22:05.431Z,0.47
2017-12-01T06:24:33.886Z,0.47
2017-12-01T06:27:02.317Z,0.47
2017-12-01T06:29:30.653Z,0.38
2017-12-01T06:31:58.992Z,0.36
2017-12-01T06:34:26.583Z,0.26
2017-12-01T06:36:55.053Z,0.23
2017-12-01T06:39:23.325Z,0.33
2017-12-01T06:41:50.900Z,0.36
2017-12-01T06:44:18.537Z,0.54
2017-12-01T06:46:46.919Z,0.56
2017-12-01T06:49:15.342Z,0.50
2017-12-01T06:51:43.685Z,0.59
2017-12-01T06:54:12.029Z,0.52
2017-12-01T06:56:39.592Z,0.55
2017-12-01T06:59:07.938Z,0.61
2017-12-01T07:01:36.323Z,0.62
2017-12-01T07:04:04.672Z,0.64
2017-12-01T07:06:32.245Z,0.53
2017-12-01T07:09:00.708Z,0.61
2017-12-01T07:11:28.305Z,0.54
2017-12-01T07:13:55.969Z,0.63
2017-12-01T07:16:23.619Z,0.62
2017-12-01T07:18:52.100Z,0.64
2017-12-01T07:21:19.659Z,0.88
2017-12-01T07:23:47.320Z,0.66
2017-12-01T07:26:26.888Z,0.77
2017-12-01T07:28:54.598Z,0.71
2017-12-01T07:31:22.973Z,1.00
2017-12-01T07:33:50.545Z,0.91
2017-12-01T07:36:18.152Z,0.95
2017-12-01T07:38:45.764Z,0.99
2017-12-01T07:41:13.372Z,0.99
2017-12-01T07:43:41.752Z,1.07
2017-12-01T07:46:10.275Z,1.18
2017-12-01T07:48:37.831Z,1.15
2017-12-01T07:51:05.402Z,0.95
2017-12-01T07:53:32.966Z,1.05
2017-12-01T07:56:00.528Z,1.22
2017-12-01T07:58:28.084Z,1.12
2017-12-01T08:00:55.659Z,1.11
2017-12-01T08:03:23.227Z,1.11
2017-12-01T08:05:50.784Z,1.08
2017-12-01T08:08:18.367Z,1.12
2017-12-01T08:10:45.928Z,1.17
2017-12-01T08:13:13.489Z,1.40
2017-12-01T08:15:53.031Z,1.26
2017-12-01T08:21:43.796Z,1.33
2017-12-01T08:24:23.913Z,1.25
2017-12-01T08:26:52.264Z,1.30
2017-12-01T08:29:20.632Z,1.25
2017-12-01T08:31:48.236Z,1.28
2017-12-01T08:34:16.508Z,1.23
2017-12-01T08:36:44.661Z,1.33
2017-12-01T08:39:12.244Z,1.38
2017-12-01T08:41:39.806Z,1.44
2017-12-01T08:44:08.272Z,1.47
2017-12-01T08:46:35.944Z,1.49
2017-12-01T08:49:04.597Z,1.52
2017-12-01T08:51:32.262Z,1.70
2017-12-01T08:54:01.985Z,1.86
2017-12-01T08:56:29.637Z,1.96
2017-12-01T08:58:57.193Z,1.89
2017-12-01T09:01:24.766Z,1.80
2017-12-01T09:03:52.355Z,1.98
2017-12-01T09:06:19.929Z,1.96
2017-12-01T09:08:47.491Z,2.10
2017-12-01T09:11:15.053Z,2.04
2017-12-01T09:13:42.616Z,2.24
2017-12-01T09:16:10.176Z,2.16
2017-12-01T09:18:37.736Z,2.20
2017-12-01T09:21:05.300Z,2.08
2017-12-01T09:23:32.944Z,2.19
2017-12-01T09:26:00.545Z,2.16
2017-12-01T09:28:28.100Z,1.94
2017-12-01T09:30:55.714Z,1.75
2017-12-01T09:33:23.383Z,2.05
2017-12-01T09:35:58.243Z,2.02
2017-12-01T09:38:25.802Z,1.91
2017-12-01T09:40:53.436Z,1.92
2017-12-01T09:43:20.997Z,2.04
2017-12-01T09:45:48.657Z,2.18
2017-12-01T09:48:16.324Z,2.30
2017-12-01T09:50:43.885Z,2.42
2017-12-01T09:53:11.445Z,2.52
2017-12-01T09:55:39.068Z,2.20
2017-12-01T09:58:06.623Z,2.19
2017-12-01T10:00:34.189Z,2.05
2017-12-01T10:03:01.778Z,2.11
2017-12-01T10:05:29.408Z,2.24
2017-12-01T10:07:57.012Z,2.27
2017-12-01T10:10:24.582Z,2.36
2017-12-01T10:12:52.182Z,2.16
2017-12-01T10:15:19.869Z,2.42
2017-12-01T10:17:47.453Z,2.19
2017-12-01T10:20:15.228Z,2.31
2017-12-01T10:22:44.045Z,2.36
2017-12-01T10:25:11.728Z,2.30
2017-12-01T10:27:39.410Z,2.14
2017-12-01T10:30:06.984Z,2.23
2017-12-01T10:32:34.604Z,2.25
2017-12-01T10:35:02.280Z,2.21
2017-12-01T10:37:29.924Z,2.38
2017-12-01T10:39:57.620Z,2.61
2017-12-01T10:42:25.183Z,2.32
2017-12-01T10:44:52.791Z,2.46
2017-12-01T10:47:20.351Z,2.45
2017-12-01T10:49:47.914Z,2.55
2017-12-01T10:52:15.494Z,2.62
2017-12-01T10:54:43.047Z,2.58
2017-12-01T10:57:10.610Z,2.66
2017-12-01T10:59:38.191Z,2.57
2017-12-01T11:02:05.789Z,2.72
2017-12-01T11:04:33.407Z,2.80
2017-12-01T11:07:01.096Z,2.60
2017-12-01T11:09:28.656Z,2.77
2017-12-01T11:11:56.217Z,2.70
2017-12-01T11:14:23.812Z,2.48
2017-12-01T11:16:51.472Z,2.67
2017-12-01T11:19:19.108Z,2.81
2017-12-01T11:21:47.592Z,2.95
2017-12-01T11:24:15.968Z,2.58
2017-12-01T11:26:44.433Z,2.71
2017-12-01T11:29:11.997Z,2.81
2017-12-01T11:31:39.566Z,3.03
2017-12-01T11:34:07.129Z,2.90
2017-12-01T11:36:34.725Z,3.16
2017-12-01T11:39:02.293Z,3.16
2017-12-01T11:41:29.948Z,3.02
2017-12-01T11:43:57.612Z,3.08
2017-12-01T11:46:25.177Z,3.21
2017-12-01T11:48:53.516Z,3.41
2017-12-01T11:51:21.932Z,3.48
2017-12-01T11:53:49.532Z,3.52
2017-12-01T11:56:17.148Z,3.45
2017-12-01T11:58:44.816Z,3.34
2017-12-01T12:01:12.388Z,3.27
2017-12-01T12:03:40.017Z,3.12
2017-12-01T12:06:07.708Z,3.23
2017-12-01T12:08:35.306Z,3.33
2017-12-01T12:11:02.900Z,3.19
2017-12-01T12:13:30.457Z,3.19
2017-12-01T12:15:58.016Z,3.16
2017-12-01T12:18:25.590Z,3.27
2017-12-01T12:20:53.169Z,3.19
2017-12-01T12:23:22.018Z,3.17
2017-12-01T12:25:49.624Z,3.18
2017-12-01T12:28:17.188Z,3.04
2017-12-01T12:30:44.784Z,3.17
2017-12-01T12:33:12.344Z,3.24
2017-12-01T12:35:41.012Z,3.36
2017-12-01T12:38:08.565Z,3.09
2017-12-01T12:40:36.200Z,3.08
2017-12-01T12:43:03.805Z,3.06
2017-12-01T12:45:31.372Z,2.89
2017-12-01T12:47:58.923Z,2.78
2017-12-01T12:50:26.559Z,2.79
2017-12-01T12:52:55.030Z,2.90
2017-12-01T12:55:22.701Z,2.97
2017-12-01T12:57:50.263Z,2.81
2017-12-01T13:00:17.864Z,2.77
2017-12-01T13:02:45.486Z,2.98
2017-12-01T13:05:13.049Z,3.08
2017-12-01T13:07:40.607Z,3.07
2017-12-01T13:10:08.273Z,3.05
2017-12-01T13:12:35.838Z,3.18
2017-12-01T13:15:03.393Z,3.15
2017-12-01T13:17:31.796Z,3.20
2017-12-01T13:19:59.353Z,3.41
2017-12-01T13:22:26.910Z,3.27
2017-12-01T13:24:54.472Z,3.29
2017-12-01T13:27:22.039Z,3.00
2017-12-01T13:29:49.674Z,3.22
2017-12-01T13:32:17.244Z,3.32
2017-12-01T13:34:45.821Z,3.36
2017-12-01T13:37:13.384Z,3.23
2017-12-01T13:39:41.860Z,3.23
2017-12-01T13:42:09.533Z,3.27
2017-12-01T13:44:37.095Z,3.22
2017-12-01T13:47:04.752Z,3.38
2017-12-01T13:49:33.273Z,3.31
2017-12-01T13:52:00.938Z,3.43
2017-12-01T13:54:28.504Z,3.22
2017-12-01T13:56:56.120Z,3.05
2017-12-01T13:59:23.681Z,2.87
2017-12-01T14:01:51.273Z,3.00
2017-12-01T14:04:18.832Z,2.70
2017-12-01T14:06:46.405Z,2.80
2017-12-01T14:09:13.964Z,2.82
2017-12-01T14:11:41.524Z,2.82
2017-12-01T14:14:09.086Z,3.08
2017-12-01T14:16:36.652Z,3.08
2017-12-01T14:19:04.217Z,3.21
2017-12-01T14:21:32.473Z,3.18
2017-12-01T14:24:00.824Z,3.23
2017-12-01T14:26:29.309Z,3.16
2017-12-01T14:28:56.971Z,3.22
2017-12-01T14:31:28.625Z,3.04
2017-12-01T14:33:56.190Z,3.11
2017-12-01T14:36:24.664Z,3.02
2017-12-01T14:38:53.073Z,2.86
2017-12-01T14:41:21.403Z,2.74
2017-12-01T14:43:49.005Z,2.84
2017-12-01T14:46:17.469Z,2.83
2017-12-01T14:48:45.027Z,2.71
2017-12-01T14:51:12.594Z,2.62
2017-12-01T14:53:40.162Z,2.48
2017-12-01T14:56:08.732Z,2.43
2017-12-01T14:58:37.184Z,2.41
2017-12-01T15:01:05.598Z,2.38
2017-12-01T15:03:34.064Z,2.36
2017-12-01T15:06:01.649Z,2.28
2017-12-01T15:08:29.212Z,2.25
2017-12-01T15:10:56.773Z,2.12
2017-12-01T15:13:24.424Z,2.10
2017-12-01T15:15:53.111Z,2.05
2017-12-01T15:18:20.672Z,2.06
2017-12-01T15:23:41.053Z,2.02
2017-12-01T15:26:08.652Z,2.02
2017-12-01T15:28:36.753Z,2.01
2017-12-01T15:31:04.320Z,1.97
2017-12-01T15:33:31.876Z,1.96
2017-12-01T15:35:59.434Z,1.94
2017-12-01T15:38:27.004Z,1.85
2017-12-01T15:40:54.577Z,1.90
2017-12-01T15:43:23.030Z,1.93
2017-12-01T15:45:50.589Z,1.87
2017-12-01T15:48:19.052Z,1.88
2017-12-01T15:50:47.403Z,1.88
2017-12-01T15:53:14.971Z,1.92
2017-12-01T15:55:42.532Z,1.94
2017-12-01T15:58:10.090Z,1.98
2017-12-01T16:00:37.696Z,1.95
2017-12-01T16:03:05.260Z,1.98
2017-12-01T16:05:33.599Z,1.98
2017-12-01T16:08:02.083Z,2.00
2017-12-01T16:10:30.443Z,2.03
2017-12-01T16:12:58.006Z,2.09
2017-12-01T16:15:25.608Z,1.98
2017-12-01T16:17:53.172Z,2.00
2017-12-01T16:20:20.828Z,2.04
2017-12-01T16:22:48.408Z,2.02
2017-12-01T16:25:16.043Z,1.89
2017-12-01T16:27:43.599Z,1.86
2017-12-01T16:30:11.175Z,1.93
2017-12-01T16:32:42.382Z,1.97
2017-12-01T16:35:06.359Z,1.85
2017-12-01T16:37:33.927Z,1.95
2017-12-01T16:40:01.571Z,1.96
2017-12-01T16:42:29.831Z,2.12
2017-12-01T16:44:57.466Z,2.01
2017-12-01T16:47:25.104Z,2.12
2017-12-01T16:49:53.605Z,2.00
2017-12-01T16:52:21.260Z,2.06
2017-12-01T16:54:48.921Z,2.12
2017-12-01T16:57:16.476Z,2.20
2017-12-01T16:59:44.084Z,2.09
2017-12-01T17:02:11.708Z,2.07
2017-12-01T17:04:39.441Z,2.01
2017-12-01T17:07:07.040Z,1.99
2017-12-01T17:09:34.598Z,2.00
2017-12-01T17:12:02.167Z,2.12
2017-12-01T17:14:29.732Z,2.22
2017-12-01T17:16:57.386Z,2.21
2017-12-01T17:19:24.960Z,2.14
2017-12-01T17:21:52.552Z,2.16
2017-12-01T17:24:20.992Z,2.08
2017-12-01T17:26:48.600Z,2.08
2017-12-01T17:29:16.275Z,2.02
2017-12-01T17:31:43.946Z,2.08
2017-12-01T17:34:11.583Z,1.96
2017-12-01T17:36:40.111Z,2.01
2017-12-01T17:39:07.668Z,2.13
2017-12-01T17:41:35.612Z,2.01
2017-12-01T17:44:03.175Z,2.14
2017-12-01T17:46:31.543Z,2.12
2017-12-01T17:49:00.008Z,2.11
2017-12-01T17:51:27.565Z,2.13
2017-12-01T17:53:56.116Z,2.22
2017-12-01T17:56:24.503Z,2.17
2017-12-01T17:58:52.063Z,2.19
2017-12-01T18:01:19.728Z,2.25
2017-12-01T18:03:48.119Z,2.19
2017-12-01T18:06:15.676Z,2.21
2017-12-01T18:08:43.231Z,2.29
2017-12-01T18:11:10.884Z,2.27
2017-12-01T18:13:38.459Z,2.20
2017-12-01T18:16:06.021Z,2.29
2017-12-01T18:18:33.973Z,2.24
2017-12-01T18:21:01.532Z,2.09
2017-12-01T18:23:29.820Z,2.18
2017-12-01T18:25:58.117Z,2.00
2017-12-01T18:28:26.577Z,1.88
2017-12-01T18:30:55.057Z,1.90
2017-12-01T18:33:23.333Z,1.97
2017-12-01T18:35:52.094Z,1.97
2017-12-01T18:38:19.789Z,2.01
2017-12-01T18:40:48.372Z,2.19
2017-12-01T18:43:15.945Z,2.30
2017-12-01T18:45:44.483Z,2.29
2017-12-01T18:48:12.836Z,2.19
2017-12-01T18:50:41.211Z,2.27
2017-12-01T18:53:08.806Z,2.19
2017-12-01T18:55:36.364Z,2.18
2017-12-01T18:58:04.875Z,2.25
2017-12-01T19:00:32.447Z,2.28
2017-12-01T19:03:00.823Z,2.09
2017-12-01T19:05:37.164Z,2.07
2017-12-01T19:08:05.681Z,2.18
2017-12-01T19:10:33.986Z,2.14
2017-12-01T19:13:01.547Z,2.17
2017-12-01T19:15:29.220Z,2.07
2017-12-01T19:17:56.776Z,2.17
2017-12-01T19:20:24.349Z,2.25
2017-12-01T19:22:51.907Z,2.29
2017-12-01T19:25:20.184Z,2.28
2017-12-01T19:27:48.515Z,2.32
2017-12-01T19:30:16.081Z,2.38
2017-12-01T19:32:43.643Z,2.26
2017-12-01T19:35:11.208Z,2.28
2017-12-01T19:37:38.764Z,2.30
2017-12-01T19:40:06.324Z,2.33
2017-12-01T19:42:34.015Z,2.32
2017-12-01T19:45:01.585Z,2.33
2017-12-01T19:47:29.241Z,2.28
2017-12-01T19:49:56.947Z,2.17
2017-12-01T19:52:25.288Z,2.15
2017-12-01T19:54:53.664Z,2.04
2017-12-01T19:57:21.256Z,2.13
2017-12-01T19:59:48.883Z,2.11
2017-12-01T20:02:16.445Z,2.25
2017-12-01T20:04:44.112Z,2.19
2017-12-01T20:07:12.566Z,2.12
2017-12-01T20:09:40.156Z,2.03
2017-12-01T20:12:07.818Z,2.26
2017-12-01T20:14:35.424Z,2.10
2017-12-01T20:17:03.050Z,2.15
2017-12-01T20:19:30.704Z,2.12
2017-12-01T20:21:58.364Z,2.09
2017-12-01T20:24:25.932Z,2.01
2017-12-01T20:26:54.180Z,2.05
2017-12-01T20:29:21.833Z,2.06
2017-12-01T20:31:49.448Z,2.16
2017-12-01T20:34:17.024Z,2.30
2017-12-01T20:36:44.580Z,2.23
2017-12-01T20:39:12.140Z,2.28
2017-12-01T20:41:39.748Z,2.20
2017-12-01T20:44:07.305Z,2.17
2017-12-01T20:46:35.024Z,2.27
2017-12-01T20:49:03.165Z,2.20
2017-12-01T20:51:31.620Z,2.28
2017-12-01T20:54:00.437Z,2.15
2017-12-01T20:56:28.685Z,2.13
2017-12-01T20:58:56.604Z,2.19
2017-12-01T21:01:24.165Z,2.15
2017-12-01T21:03:51.771Z,2.11
2017-12-01T21:06:20.296Z,2.10
2017-12-01T21:08:48.656Z,1.99
2017-12-01T21:11:17.097Z,2.24
2017-12-01T21:13:44.689Z,2.18
2017-12-01T21:16:12.279Z,2.33
2017-12-01T21:18:40.856Z,2.12
2017-12-01T21:21:08.416Z,2.16
2017-12-01T21:23:36.008Z,2.26
2017-12-01T21:26:03.711Z,2.22
2017-12-01T21:28:31.300Z,2.36
2017-12-01T21:30:58.891Z,2.38
2017-12-01T21:33:26.443Z,2.39
2017-12-01T21:35:54.089Z,2.28
2017-12-01T21:38:21.652Z,2.34
2017-12-01T21:40:49.211Z,2.44
2017-12-01T21:43:16.872Z,2.27
2017-12-01T21:45:44.462Z,2.30
2017-12-01T21:48:12.016Z,2.24
2017-12-01T21:50:40.292Z,2.22
2017-12-01T21:53:07.856Z,2.39
2017-12-01T21:55:35.446Z,2.41
2017-12-01T21:58:03.036Z,2.28
2017-12-01T22:00:30.621Z,2.24
2017-12-01T22:02:59.005Z,2.22
2017-12-01T22:05:27.415Z,2.22
2017-12-01T22:07:54.980Z,2.21
2017-12-01T22:10:22.535Z,2.33
2017-12-01T22:12:50.168Z,2.28
2017-12-01T22:15:17.761Z,2.27
2017-12-01T22:17:45.323Z,2.38
2017-12-01T22:20:12.928Z,2.37
2017-12-01T22:22:40.508Z,2.28
2017-12-01T22:25:08.078Z,2.35
2017-12-01T22:27:35.640Z,2.44
2017-12-01T22:30:03.200Z,2.53
2017-12-01T22:32:30.764Z,2.50
2017-12-01T22:34:58.320Z,2.64
2017-12-01T22:37:25.893Z,2.61
2017-12-01T22:39:53.451Z,2.57
2017-12-01T22:42:21.091Z,2.59
2017-12-01T22:44:49.355Z,2.55
2017-12-01T22:47:17.474Z,2.57
2017-12-01T22:49:45.082Z,2.49
2017-12-01T22:52:12.624Z,2.46
2017-12-01T22:54:40.183Z,2.35
2017-12-01T22:57:07.749Z,2.38
2017-12-01T22:59:35.304Z,2.45
2017-12-01T23:02:03.923Z,2.40
2017-12-01T23:04:32.285Z,2.39
2017-12-01T23:07:00.624Z,2.47
2017-12-01T23:09:28.185Z,2.48
2017-12-01T23:11:55.743Z,2.48
2017-12-01T23:14:23.368Z,2.53
2017-12-01T23:16:50.923Z,2.46
2017-12-01T23:19:19.440Z,2.40
2017-12-01T23:21:47.896Z,2.51
2017-12-01T23:24:15.464Z,2.37
2017-12-01T23:26:43.119Z,2.45
2017-12-01T23:29:10.688Z,2.44
2017-12-01T23:31:38.345Z,2.52
2017-12-01T23:34:05.905Z,2.46
2017-12-01T23:36:34.958Z,2.38
2017-12-01T23:39:02.527Z,2.54
2017-12-01T23:41:30.124Z,2.52
2017-12-01T23:43:57.752Z,2.58
2017-12-01T23:46:25.343Z,2.37
2017-12-01T23:48:53.016Z,2.26
2017-12-01T23:51:20.627Z,2.34
2017-12-01T23:53:48.888Z,2.31
2017-12-01T23:56:16.449Z,2.39
2017-12-01T23:58:44.108Z,2.37
